MOL Performance — H9UW — position and weather

sailwx.info

Track history (hours):
 
Tides and Currents Weather Stations Pressure Air Temp Water Temp Dewpoint Dewpoint Depression Visibility Wind Speed Wind Dir Waves Ship Positions

MOL Performance

Last reported at 2018-Apr-21 01:12 UTC. Time now 2018-Apr-22 14:09 UTC.
Position N 34°58' E 140°38'.

Length 366 m; draft 14.5 m.

Type: Cargo ship. MMSI: 371274000.

Date/timePositionNaut miles runAvg speedWind from/ knotsBaromVisibWave heightAir tempDewpointWater temp
2018-Apr-21 01:12N 34°58' E 140°38'622.8
2018-Apr-21 00:58N 34°55' E 140°32'1223.4
2018-Apr-21 00:27N 34°49' E 140°19'1023.4
2018-Apr-21 00:00N 34°46' E 140°07'1223.0
2018-Apr-20 23:29N 34°43' E 139°53'1222.0
2018-Apr-20 22:57N 34°39' E 139°39'1021.4
2018-Apr-20 22:28N 34°38' E 139°27'1421.8
2018-Apr-20 21:49N 34°35' E 139°10'822.0
2018-Apr-20 21:27N 34°31' E 139°02'1022.1
2018-Apr-20 21:00N 34°26' E 138°51'1122.0
2018-Apr-20 20:30N 34°21' E 138°39'1221.9
2018-Apr-20 19:57N 34°15' E 138°27'1021.7
2018-Apr-20 19:30N 34°10' E 138°16'2821.1
2018-Apr-20 18:09N 33°58' E 137°46'620.5
2018-Apr-20 17:53N 33°55' E 137°40'820.6
2018-Apr-20 17:30N 33°52' E 137°31'1020.7
2018-Apr-20 17:00N 33°47' E 137°20'1020.5
2018-Apr-20 16:31N 33°42' E 137°09'1120.4
2018-Apr-20 15:57N 33°37' E 136°57'8220.4
2018-Apr-20 11:56N 32°59' E 135°30'920.3
2018-Apr-20 11:30N 32°55' E 135°21'1221.2
2018-Apr-20 10:55N 32°49' E 135°08'98421.7
2018-Apr-18 13:27N 24°24' E 119°06'1021.7
2018-Apr-18 12:59N 24°19' E 118°56'1121.6
2018-Apr-18 12:29N 24°17' E 118°44'1020.7
2018-Apr-18 12:00N 24°15' E 118°33'918.7
2018-Apr-18 11:30N 24°14' E 118°23'713.9
2018-Apr-18 11:00N 24°15' E 118°16'612.7
2018-Apr-18 10:30N 24°19' E 118°11'611.9
2018-Apr-18 10:00N 24°24' E 118°06'5 9.5
2018-Apr-18 09:30N 24°26' E 118°02'0 0.3
2018-Apr-18 09:00N 24°26' E 118°02'0 0.0
2018-Apr-18 08:30N 24°26' E 118°02'0 0.1
2018-Apr-18 07:56N 24°26' E 118°02'0 0.1
2018-Apr-18 07:30N 24°26' E 118°02'0 0.1
2018-Apr-18 07:00N 24°26' E 118°02'0 0.1
2018-Apr-18 06:30N 24°26' E 118°02'0 0.0
2018-Apr-18 06:00N 24°26' E 118°02'0 0.0
2018-Apr-18 05:30N 24°26' E 118°02'0 0.1
2018-Apr-18 05:00N 24°26' E 118°02'0 0.1
2018-Apr-18 04:30N 24°26' E 118°02'0 0.1
2018-Apr-18 04:00N 24°26' E 118°02'0 0.0
2018-Apr-18 03:29N 24°26' E 118°02'0 0.0
2018-Apr-18 02:59N 24°26' E 118°02'0 0.0
2018-Apr-18 02:30N 24°26' E 118°02'0 0.1
2018-Apr-18 01:59N 24°26' E 118°02'0 0.1
2018-Apr-18 01:30N 24°26' E 118°02'0 0.0
2018-Apr-18 00:59N 24°26' E 118°02'0 0.0
2018-Apr-18 00:29N 24°26' E 118°02'0 0.0
2018-Apr-17 23:59N 24°26' E 118°02'0 0.0
2018-Apr-17 23:30N 24°26' E 118°02'0 0.1
2018-Apr-17 23:00N 24°26' E 118°02'0 0.1
2018-Apr-17 22:29N 24°26' E 118°02'0 0.1
2018-Apr-17 21:59N 24°26' E 118°02'0 0.0
2018-Apr-17 21:30N 24°26' E 118°02'0 0.0
2018-Apr-17 20:59N 24°26' E 118°02'0 0.1
2018-Apr-17 20:30N 24°26' E 118°02'0 0.0
2018-Apr-17 19:59N 24°26' E 118°02'0 0.1
2018-Apr-17 19:30N 24°26' E 118°02'0 0.1
2018-Apr-17 18:59N 24°26' E 118°02'0 0.0
2018-Apr-17 18:29N 24°26' E 118°02'0 0.0
2018-Apr-17 18:00N 24°26' E 118°02'0 0.0
2018-Apr-17 17:29N 24°26' E 118°02'0 0.0
2018-Apr-17 16:59N 24°26' E 118°02'0 0.1
2018-Apr-17 16:29N 24°26' E 118°02'0 0.0
2018-Apr-17 16:01N 24°26' E 118°02'0 0.4
2018-Apr-17 15:30N 24°26' E 118°02'4 7.4
2018-Apr-17 15:00N 24°25' E 118°06'4 8.7
2018-Apr-17 14:30N 24°21' E 118°09'612.2
2018-Apr-17 14:00N 24°17' E 118°13'611.8
2018-Apr-17 13:30N 24°13' E 118°19'5 9.7
2018-Apr-17 13:00N 24°14' E 118°24'1 2.2
2018-Apr-17 12:30N 24°13' E 118°25'0 0.9
2018-Apr-17 12:00N 24°13' E 118°25'0 0.8
2018-Apr-17 11:31N 24°12' E 118°25'1 1.3
2018-Apr-17 11:00N 24°12' E 118°25'2 3.7
2018-Apr-17 10:30N 24°10' E 118°24'2 4.9
2018-Apr-17 10:00N 24°08' E 118°23'2 3.4
2018-Apr-17 09:30N 24°07' E 118°21'0 0.9
2018-Apr-17 08:59N 24°08' E 118°21'1 1.2
2018-Apr-17 08:30N 24°08' E 118°22'1 1.7
2018-Apr-17 08:00N 24°09' E 118°23'1 1.9
2018-Apr-17 07:31N 24°09' E 118°23'1 2.0
2018-Apr-17 07:00N 24°10' E 118°24'1 2.2
2018-Apr-17 06:30N 24°11' E 118°25'1 1.0
2018-Apr-17 05:59N 24°11' E 118°24'2 4.1
2018-Apr-17 05:30N 24°10' E 118°23'1 2.6
2018-Apr-17 05:01N 24°09' E 118°21'2 3.8
2018-Apr-17 04:30N 24°09' E 118°19'1 1.6
2018-Apr-17 04:00N 24°10' E 118°18'1 1.9
2018-Apr-17 03:30N 24°10' E 118°19'1 1.7
2018-Apr-17 03:00N 24°10' E 118°20'1 1.6
2018-Apr-17 02:30N 24°10' E 118°21'1 2.2
2018-Apr-17 02:00N 24°09' E 118°21'4 7.3
2018-Apr-17 01:30N 24°06' E 118°19'611.4
2018-Apr-17 01:00N 24°00' E 118°17'811.9
2018-Apr-17 00:22N 23°54' E 118°14'511.6
2018-Apr-16 23:55N 23°49' E 118°11'711.4
2018-Apr-16 23:20N 23°43' E 118°08'511.1
2018-Apr-16 22:53N 23°38' E 118°05'410.8
2018-Apr-16 22:30N 23°35' E 118°04'510.4
2018-Apr-16 22:00N 23°30' E 118°01'510.1
2018-Apr-16 21:28N 23°26' E 117°57'5 9.7
2018-Apr-16 20:59N 23°22' E 117°55'4 9.0
2018-Apr-16 20:29N 23°19' E 117°51'4 9.0
2018-Apr-16 20:00N 23°17' E 117°47'4 9.1
2018-Apr-16 19:30N 23°15' E 117°42'5 9.0
2018-Apr-16 19:00N 23°13' E 117°38'5 9.1
2018-Apr-16 18:27N 23°10' E 117°33'  
Track history (hours):
 
Tides and Currents Weather Stations Pressure Air Temp Water Temp Dewpoint Dewpoint Depression Visibility Wind Speed Wind Dir Waves Ship Positions

MOL Performance

Last reported at 2018-Apr-21 01:12 UTC. Time now 2018-Apr-22 14:09 UTC.
Position N 34°58' E 140°38'.

Length 366 m; draft 14.5 m.

Type: Cargo ship. MMSI: 371274000.

Date/timePositionNaut miles runAvg speedWind from/ knotsBaromVisibWave heightAir tempDewpointWater temp
2018-Apr-21 01:12N 34°58' E 140°38'622.8
2018-Apr-21 00:58N 34°55' E 140°32'1223.4
2018-Apr-21 00:27N 34°49' E 140°19'1023.4
2018-Apr-21 00:00N 34°46' E 140°07'1223.0
2018-Apr-20 23:29N 34°43' E 139°53'1222.0
2018-Apr-20 22:57N 34°39' E 139°39'1021.4
2018-Apr-20 22:28N 34°38' E 139°27'1421.8
2018-Apr-20 21:49N 34°35' E 139°10'822.0
2018-Apr-20 21:27N 34°31' E 139°02'1022.1
2018-Apr-20 21:00N 34°26' E 138°51'1122.0
2018-Apr-20 20:30N 34°21' E 138°39'1221.9
2018-Apr-20 19:57N 34°15' E 138°27'1021.7
2018-Apr-20 19:30N 34°10' E 138°16'2821.1
2018-Apr-20 18:09N 33°58' E 137°46'620.5
2018-Apr-20 17:53N 33°55' E 137°40'820.6
2018-Apr-20 17:30N 33°52' E 137°31'1020.7
2018-Apr-20 17:00N 33°47' E 137°20'1020.5
2018-Apr-20 16:31N 33°42' E 137°09'1120.4
2018-Apr-20 15:57N 33°37' E 136°57'8220.4
2018-Apr-20 11:56N 32°59' E 135°30'920.3
2018-Apr-20 11:30N 32°55' E 135°21'1221.2
2018-Apr-20 10:55N 32°49' E 135°08'98421.7
2018-Apr-18 13:27N 24°24' E 119°06'1021.7
2018-Apr-18 12:59N 24°19' E 118°56'1121.6
2018-Apr-18 12:29N 24°17' E 118°44'1020.7
2018-Apr-18 12:00N 24°15' E 118°33'918.7
2018-Apr-18 11:30N 24°14' E 118°23'713.9
2018-Apr-18 11:00N 24°15' E 118°16'612.7
2018-Apr-18 10:30N 24°19' E 118°11'611.9
2018-Apr-18 10:00N 24°24' E 118°06'5 9.5
2018-Apr-18 09:30N 24°26' E 118°02'0 0.3
2018-Apr-18 09:00N 24°26' E 118°02'0 0.0
2018-Apr-18 08:30N 24°26' E 118°02'0 0.1
2018-Apr-18 07:56N 24°26' E 118°02'0 0.1
2018-Apr-18 07:30N 24°26' E 118°02'0 0.1
2018-Apr-18 07:00N 24°26' E 118°02'0 0.1
2018-Apr-18 06:30N 24°26' E 118°02'0 0.0
2018-Apr-18 06:00N 24°26' E 118°02'0 0.0
2018-Apr-18 05:30N 24°26' E 118°02'0 0.1
2018-Apr-18 05:00N 24°26' E 118°02'0 0.1
2018-Apr-18 04:30N 24°26' E 118°02'0 0.1
2018-Apr-18 04:00N 24°26' E 118°02'0 0.0
2018-Apr-18 03:29N 24°26' E 118°02'0 0.0
2018-Apr-18 02:59N 24°26' E 118°02'0 0.0
2018-Apr-18 02:30N 24°26' E 118°02'0 0.1
2018-Apr-18 01:59N 24°26' E 118°02'0 0.1
2018-Apr-18 01:30N 24°26' E 118°02'0 0.0
2018-Apr-18 00:59N 24°26' E 118°02'0 0.0
2018-Apr-18 00:29N 24°26' E 118°02'0 0.0
2018-Apr-17 23:59N 24°26' E 118°02'0 0.0
2018-Apr-17 23:30N 24°26' E 118°02'0 0.1
2018-Apr-17 23:00N 24°26' E 118°02'0 0.1
2018-Apr-17 22:29N 24°26' E 118°02'0 0.1
2018-Apr-17 21:59N 24°26' E 118°02'0 0.0
2018-Apr-17 21:30N 24°26' E 118°02'0 0.0
2018-Apr-17 20:59N 24°26' E 118°02'0 0.1
2018-Apr-17 20:30N 24°26' E 118°02'0 0.0
2018-Apr-17 19:59N 24°26' E 118°02'0 0.1
2018-Apr-17 19:30N 24°26' E 118°02'0 0.1
2018-Apr-17 18:59N 24°26' E 118°02'0 0.0
2018-Apr-17 18:29N 24°26' E 118°02'0 0.0
2018-Apr-17 18:00N 24°26' E 118°02'0 0.0
2018-Apr-17 17:29N 24°26' E 118°02'0 0.0
2018-Apr-17 16:59N 24°26' E 118°02'0 0.1
2018-Apr-17 16:29N 24°26' E 118°02'0 0.0
2018-Apr-17 16:01N 24°26' E 118°02'0 0.4
2018-Apr-17 15:30N 24°26' E 118°02'4 7.4
2018-Apr-17 15:00N 24°25' E 118°06'4 8.7
2018-Apr-17 14:30N 24°21' E 118°09'612.2
2018-Apr-17 14:00N 24°17' E 118°13'611.8
2018-Apr-17 13:30N 24°13' E 118°19'5 9.7
2018-Apr-17 13:00N 24°14' E 118°24'1 2.2
2018-Apr-17 12:30N 24°13' E 118°25'0 0.9
2018-Apr-17 12:00N 24°13' E 118°25'0 0.8
2018-Apr-17 11:31N 24°12' E 118°25'1 1.3
2018-Apr-17 11:00N 24°12' E 118°25'2 3.7
2018-Apr-17 10:30N 24°10' E 118°24'2 4.9
2018-Apr-17 10:00N 24°08' E 118°23'2 3.4
2018-Apr-17 09:30N 24°07' E 118°21'0 0.9
2018-Apr-17 08:59N 24°08' E 118°21'1 1.2
2018-Apr-17 08:30N 24°08' E 118°22'1 1.7
2018-Apr-17 08:00N 24°09' E 118°23'1 1.9
2018-Apr-17 07:31N 24°09' E 118°23'1 2.0
2018-Apr-17 07:00N 24°10' E 118°24'1 2.2
2018-Apr-17 06:30N 24°11' E 118°25'1 1.0
2018-Apr-17 05:59N 24°11' E 118°24'2 4.1
2018-Apr-17 05:30N 24°10' E 118°23'1 2.6
2018-Apr-17 05:01N 24°09' E 118°21'2 3.8
2018-Apr-17 04:30N 24°09' E 118°19'1 1.6
2018-Apr-17 04:00N 24°10' E 118°18'1 1.9
2018-Apr-17 03:30N 24°10' E 118°19'1 1.7
2018-Apr-17 03:00N 24°10' E 118°20'1 1.6
2018-Apr-17 02:30N 24°10' E 118°21'1 2.2
2018-Apr-17 02:00N 24°09' E 118°21'4 7.3
2018-Apr-17 01:30N 24°06' E 118°19'611.4
2018-Apr-17 01:00N 24°00' E 118°17'811.9
2018-Apr-17 00:22N 23°54' E 118°14'511.6
2018-Apr-16 23:55N 23°49' E 118°11'711.4
2018-Apr-16 23:20N 23°43' E 118°08'511.1
2018-Apr-16 22:53N 23°38' E 118°05'410.8
2018-Apr-16 22:30N 23°35' E 118°04'510.4
2018-Apr-16 22:00N 23°30' E 118°01'510.1
2018-Apr-16 21:28N 23°26' E 117°57'5 9.7
2018-Apr-16 20:59N 23°22' E 117°55'4 9.0
2018-Apr-16 20:29N 23°19' E 117°51'4 9.0
2018-Apr-16 20:00N 23°17' E 117°47'4 9.1
2018-Apr-16 19:30N 23°15' E 117°42'5 9.0
2018-Apr-16 19:00N 23°13' E 117°38'5 9.1
2018-Apr-16 18:27N 23°10' E 117°33'  

Dump ship's entire track history